Nearby METAR Reports

KBED - Bedford,MA, USA
Distance from station: S 11mi, 18km
Updated: Fri, 24-Sep-2021 1:51am EDT
Mostly Cloudy
Mostly Cloudy
 Wind from SE
Wind: SE 8 mph , 13 km/h
Temperature: 72°F , 22°C
Dew Point: 70°F , 21°C
Humidity: 94%
Barometer: 30.03 inHg , 1016.9 hPa
Clouds: Mostly Cloudy
Visibility: 10 miles , 16 km
Cloud details: Few Clouds 1300 ft
Mostly Cloudy 8000 ft
2021/09/24 05:51 KBED 240551Z AUTO 13007KT 10SM FEW013 BKN080 22/21 A3003 RMK AO2 SLP179 60001 T02170206 10239 20217 58010
KLWM - Lawrence,MA, USA
Distance from station: ENE 12mi, 19km
Updated: Fri, 24-Sep-2021 2:14am EDT
Mostly Cloudy
Mostly Cloudy
 Wind from ESE
Wind: ESE 9 mph , 15 km/h, Gust: 21 mph , 33 km/h
Temperature: 72°F , 22°C
Dew Point: 70°F , 21°C
Humidity: 94%
Barometer: 30.06 inHg , 1017.9 hPa
Clouds: Mostly Cloudy
Visibility: 10 miles , 16 km
Cloud details: Partly Cloudy 800 ft
Mostly Cloudy 8500 ft
2021/09/24 06:14 KLWM 240614Z AUTO 12008G18KT 080V150 10SM SCT008 BKN085 22/21 A3006 RMK AO2 T02170206
 
KASH - Nashua,NH, USA
Distance from station: NW 14mi, 23km
Updated: Fri, 24-Sep-2021 1:56am EDT
Overcast
Overcast
 Wind from varies
Wind: varies 5 mph , 7 km/h
Temperature: 70°F , 21°C
Dew Point: 70°F , 21°C
Humidity: 100%
Barometer: 30.05 inHg , 1017.6 hPa
Clouds: Overcast
Visibility: 10 miles , 16 km
Cloud details: Mostly Cloudy 700 ft
Mostly Cloudy 1700 ft
Overcast 3200 ft
2021/09/24 05:56 KASH 240556Z AUTO VRB04KT 10SM BKN007 BKN017 OVC032 21/21 A3005 RMK AO2 SLP177 60000 T02060206 10233 20206 57009
KFIT - Fitchburg, MA, USA
Distance from station: WSW 22mi, 35km
Updated: Fri, 24-Sep-2021 1:52am EDT
Overcast
Overcast
 Wind from SSE
Wind: SSE 7 mph , 11 km/h
Temperature: 72°F , 22°C
Dew Point: 66°F , 19°C
Humidity: 83%
Barometer: 30.04 inHg , 1017.3 hPa
Clouds: Overcast
Visibility: 10 miles , 16 km
Cloud details: Overcast 1000 ft
2021/09/24 05:52 KFIT 240552Z AUTO 15006KT 10SM OVC010 22/19 A3004 RMK AO2 SLP171 60000 T02170194 10228 20217 56009

Metar display script from Saratoga-Weather.org